createdAt,value
2022-10-28T00:00:48.366Z,66.53
2022-10-28T00:03:56.341Z,45.88
2022-10-28T00:06:59.891Z,29.90
2022-10-28T00:10:04.260Z,32.67
2022-10-28T00:13:06.832Z,35.83
2022-10-28T00:16:16.102Z,27.53
2022-10-28T00:19:18.682Z,38.70
2022-10-28T00:22:22.933Z,30.45
2022-10-28T00:25:27.149Z,43.42
2022-10-28T00:28:30.100Z,33.63
2022-10-28T00:31:34.635Z,27.90
2022-10-28T00:34:37.857Z,34.42
2022-10-28T00:37:40.466Z,26.52
2022-10-28T00:40:43.402Z,34.17
2022-10-28T00:43:47.642Z,30.77
2022-10-28T00:46:53.519Z,31.80
2022-10-28T00:50:10.129Z,42.55
2022-10-28T00:53:21.185Z,42.47
2022-10-28T00:56:27.865Z,31.23
2022-10-28T00:59:35.397Z,29.67
2022-10-28T01:02:44.675Z,38.27
2022-10-28T01:05:49.592Z,31.98
2022-10-28T01:08:54.850Z,68.10
2022-10-28T01:12:18.392Z,84.90
2022-10-28T01:15:42.739Z,48.70
2022-10-28T01:19:11.444Z,52.17
2022-10-28T01:22:25.748Z,50.88
2022-10-28T01:25:45.783Z,44.00
2022-10-28T01:29:07.023Z,60.30
2022-10-28T01:32:48.553Z,92.93
2022-10-28T01:36:01.622Z,78.57
2022-10-28T01:39:16.083Z,61.13
2022-10-28T01:42:37.802Z,41.35
2022-10-28T01:45:58.279Z,49.17
2022-10-28T01:49:09.410Z,28.63
2022-10-28T01:52:15.110Z,39.37
2022-10-28T01:55:29.379Z,39.75
2022-10-28T01:58:33.944Z,37.67
2022-10-28T02:01:38.625Z,39.80
2022-10-28T02:04:41.707Z,34.13
2022-10-28T02:07:45.041Z,43.73
2022-10-28T02:10:58.864Z,39.90
2022-10-28T02:14:16.144Z,48.63
2022-10-28T02:17:57.547Z,38.75
2022-10-28T02:21:06.195Z,51.30
2022-10-28T02:24:20.445Z,45.00
2022-10-28T02:27:35.329Z,38.47
2022-10-28T02:30:41.200Z,56.55
2022-10-28T02:33:47.799Z,58.87
2022-10-28T02:36:53.863Z,59.67
2022-10-28T02:40:00.196Z,36.27
2022-10-28T02:43:06.689Z,24.45
2022-10-28T02:46:11.614Z,23.67
2022-10-28T02:49:15.629Z,22.40
2022-10-28T02:52:22.149Z,25.30
2022-10-28T02:55:33.478Z,27.97
2022-10-28T02:58:42.631Z,25.95
2022-10-28T03:01:45.592Z,36.42
2022-10-28T03:04:48.469Z,27.23
2022-10-28T03:07:52.673Z,28.93
2022-10-28T03:10:55.510Z,45.93
2022-10-28T03:13:58.507Z,53.35
2022-10-28T03:17:01.199Z,36.38
2022-10-28T03:20:04.419Z,38.83
2022-10-28T03:23:07.044Z,29.83
2022-10-28T03:26:09.935Z,45.73
2022-10-28T03:29:12.499Z,44.38
2022-10-28T03:32:15.384Z,37.40
2022-10-28T03:35:17.938Z,35.17
2022-10-28T03:38:20.962Z,35.17
2022-10-28T03:41:23.834Z,30.63
2022-10-28T03:44:29.053Z,34.95
2022-10-28T03:47:31.676Z,30.90
2022-10-28T03:50:34.789Z,38.50
2022-10-28T03:53:37.395Z,49.13
2022-10-28T03:56:40.727Z,42.37
2022-10-28T03:59:43.413Z,64.25
2022-10-28T04:02:53.395Z,46.35
2022-10-28T04:05:56.453Z,67.10
2022-10-28T04:08:58.997Z,42.93
2022-10-28T04:12:01.995Z,33.83
2022-10-28T04:15:05.002Z,65.80
2022-10-28T04:18:08.091Z,70.97
2022-10-28T04:21:10.734Z,64.80
2022-10-28T04:24:13.636Z,84.83
2022-10-28T04:27:16.208Z,71.13
2022-10-28T04:30:19.260Z,70.80
2022-10-28T04:33:21.940Z,76.72
2022-10-28T04:36:24.923Z,91.30
2022-10-28T04:39:27.584Z,48.57
2022-10-28T04:42:30.511Z,42.90
2022-10-28T04:45:33.138Z,50.95
2022-10-28T04:48:36.301Z,43.03
2022-10-28T04:51:38.898Z,45.25
2022-10-28T04:54:41.833Z,45.73
2022-10-28T04:57:44.453Z,54.17
2022-10-28T05:00:47.393Z,38.72
2022-10-28T05:03:49.971Z,38.97
2022-10-28T05:06:52.791Z,42.62
2022-10-28T05:09:55.470Z,35.47
2022-10-28T05:12:58.388Z,60.53
2022-10-28T05:16:00.983Z,58.70
2022-10-28T05:19:04.119Z,73.57
2022-10-28T05:22:07.928Z,59.15
2022-10-28T05:25:12.025Z,44.23
2022-10-28T05:28:14.689Z,72.90
2022-10-28T05:31:18.367Z,55.38
2022-10-28T05:34:20.924Z,59.85
2022-10-28T05:37:23.770Z,60.15
2022-10-28T05:40:26.544Z,59.07
2022-10-28T05:43:29.435Z,75.67
2022-10-28T05:46:32.166Z,50.45
2022-10-28T05:49:35.049Z,50.55
2022-10-28T05:52:37.751Z,33.20
2022-10-28T05:55:45.141Z,42.17
2022-10-28T06:01:58.019Z,46.25
2022-10-28T06:05:00.967Z,52.40
2022-10-28T06:08:05.698Z,59.53
2022-10-28T06:11:07.131Z,44.23
2022-10-28T06:14:09.808Z,46.67
2022-10-28T06:17:12.717Z,55.80
2022-10-28T06:20:16.883Z,38.92
2022-10-28T06:23:20.056Z,71.55
2022-10-28T06:26:22.649Z,87.40
2022-10-28T06:29:25.632Z,48.00
2022-10-28T06:32:28.255Z,61.37
2022-10-28T06:35:31.216Z,60.17
2022-10-28T06:38:33.766Z,62.30
2022-10-28T06:41:36.618Z,61.07
2022-10-28T06:44:39.207Z,45.40
2022-10-28T06:47:43.599Z,43.50
2022-10-28T06:50:46.181Z,48.78
2022-10-28T06:53:52.955Z,41.42
2022-10-28T06:56:55.916Z,50.40
2022-10-28T06:59:58.786Z,46.87
2022-10-28T07:03:01.595Z,48.65
2022-10-28T07:06:05.212Z,45.55
2022-10-28T07:09:08.279Z,47.75
2022-10-28T07:12:11.280Z,42.73
2022-10-28T07:15:13.920Z,55.20
2022-10-28T07:18:16.762Z,37.05
2022-10-28T07:21:21.949Z,42.00
2022-10-28T07:27:30.240Z,39.17
2022-10-28T07:30:34.942Z,39.03
2022-10-28T07:33:37.554Z,33.17
2022-10-28T07:36:40.647Z,39.75
2022-10-28T07:39:43.312Z,33.90
2022-10-28T07:42:46.155Z,29.33
2022-10-28T07:45:48.903Z,32.43
2022-10-28T07:48:51.810Z,29.67
2022-10-28T07:51:54.525Z,32.83
2022-10-28T07:54:57.931Z,31.00
2022-10-28T07:58:00.635Z,33.73
2022-10-28T08:01:07.075Z,29.80
2022-10-28T08:04:09.996Z,30.52
2022-10-28T08:07:13.884Z,27.27
2022-10-28T08:10:16.873Z,24.40
2022-10-28T08:13:19.518Z,32.83
2022-10-28T08:16:22.577Z,30.40
2022-10-28T08:19:25.210Z,30.92
2022-10-28T08:22:28.160Z,29.58
2022-10-28T08:25:30.747Z,33.33
2022-10-28T08:28:33.890Z,32.00
2022-10-28T08:31:36.547Z,35.23
2022-10-28T08:34:42.681Z,36.25
2022-10-28T08:37:51.812Z,29.00
2022-10-28T08:41:33.483Z,34.63
2022-10-28T08:45:05.058Z,26.70
2022-10-28T08:48:36.721Z,38.93
2022-10-28T08:51:44.949Z,29.35
2022-10-28T08:54:55.520Z,27.08
2022-10-28T08:58:07.089Z,29.00
2022-10-28T09:01:21.532Z,27.13
2022-10-28T09:04:40.319Z,39.67
2022-10-28T09:07:43.396Z,26.73
2022-10-28T09:11:09.101Z,22.42
2022-10-28T09:14:33.621Z,24.95
2022-10-28T09:17:39.162Z,27.57
2022-10-28T09:20:54.904Z,25.73
2022-10-28T09:24:01.087Z,17.73
2022-10-28T09:27:23.194Z,10.85
2022-10-28T09:30:40.978Z,13.07
2022-10-28T09:33:55.857Z,11.00
2022-10-28T09:37:11.292Z,12.83
2022-10-28T09:40:17.500Z,11.80
2022-10-28T09:43:28.754Z,10.05
2022-10-28T09:46:36.216Z,12.80
2022-10-28T09:49:41.203Z,12.60
2022-10-28T09:52:59.401Z,12.27
2022-10-28T09:56:03.866Z,10.60
2022-10-28T09:59:08.037Z,14.23
2022-10-28T10:02:25.556Z,15.88
2022-10-28T10:05:30.557Z,16.87
2022-10-28T10:08:36.511Z,11.63
2022-10-28T10:11:45.145Z,13.20
2022-10-28T10:14:54.540Z,12.37
2022-10-28T10:18:01.012Z,18.33
2022-10-28T10:21:04.057Z,11.77
2022-10-28T10:24:22.858Z,14.63
2022-10-28T10:27:27.898Z,11.70
2022-10-28T10:30:33.810Z,9.95
2022-10-28T10:33:39.649Z,12.95
2022-10-28T10:36:50.214Z,11.67
2022-10-28T10:40:17.909Z,10.50
2022-10-28T10:43:24.445Z,13.00
2022-10-28T10:46:28.299Z,11.15
2022-10-28T10:49:31.386Z,10.65
2022-10-28T10:52:34.083Z,12.17
2022-10-28T10:55:40.353Z,12.80
2022-10-28T10:58:54.499Z,7.85
2022-10-28T11:01:59.665Z,11.05
2022-10-28T11:05:06.415Z,10.27
2022-10-28T11:08:27.668Z,9.80
2022-10-28T11:11:38.696Z,11.17
2022-10-28T11:14:54.862Z,8.52
2022-10-28T11:18:09.663Z,11.00
2022-10-28T11:21:15.543Z,14.75
2022-10-28T11:24:44.830Z,12.90
2022-10-28T11:28:21.840Z,15.83
2022-10-28T11:32:01.789Z,10.93
2022-10-28T11:35:04.842Z,10.07
2022-10-28T11:38:16.142Z,10.00
2022-10-28T11:41:27.942Z,20.87
2022-10-28T11:44:53.440Z,12.20
2022-10-28T11:48:15.102Z,25.77
2022-10-28T11:51:31.378Z,12.68
2022-10-28T11:54:45.195Z,12.32
2022-10-28T11:58:38.454Z,27.53
2022-10-28T12:01:45.834Z,13.93
2022-10-28T12:05:24.928Z,14.95
2022-10-28T12:09:00.062Z,14.60
2022-10-28T12:12:10.200Z,13.90
2022-10-28T12:15:20.461Z,11.10
2022-10-28T12:18:58.691Z,9.73
2022-10-28T12:22:01.287Z,9.55
2022-10-28T12:25:14.712Z,7.93
2022-10-28T12:28:25.532Z,11.30
2022-10-28T12:31:34.137Z,9.73
2022-10-28T12:35:08.037Z,11.23
2022-10-28T12:38:43.405Z,10.07
2022-10-28T12:42:13.105Z,10.45
2022-10-28T12:45:19.362Z,9.48
2022-10-28T12:48:34.022Z,15.17
2022-10-28T12:51:40.598Z,9.70
2022-10-28T12:55:03.964Z,9.80
2022-10-28T12:58:17.134Z,13.00
2022-10-28T13:01:22.562Z,11.10
2022-10-28T13:04:28.901Z,11.50
2022-10-28T13:08:02.352Z,8.80
2022-10-28T13:11:49.929Z,10.73
2022-10-28T13:15:26.372Z,11.15
2022-10-28T13:18:49.388Z,10.40
2022-10-28T13:22:19.365Z,11.70
2022-10-28T13:25:55.375Z,14.00
2022-10-28T13:29:01.225Z,16.20
2022-10-28T13:32:05.399Z,10.73
2022-10-28T13:35:28.140Z,13.35
2022-10-28T13:38:31.225Z,13.77
2022-10-28T13:41:44.692Z,13.73
2022-10-28T13:44:55.713Z,14.98
2022-10-28T13:48:30.485Z,12.30
2022-10-28T13:51:33.950Z,20.80
2022-10-28T13:54:39.228Z,18.07
2022-10-28T13:57:50.222Z,15.97
2022-10-28T14:00:53.966Z,13.35
2022-10-28T14:03:57.174Z,13.88
2022-10-28T14:07:15.812Z,17.25
2022-10-28T14:10:30.814Z,14.13
2022-10-28T14:13:48.103Z,13.87
2022-10-28T14:16:51.110Z,14.10
2022-10-28T14:19:54.643Z,18.05
2022-10-28T14:22:58.206Z,19.87
2022-10-28T14:26:04.762Z,19.53
2022-10-28T14:29:23.993Z,23.90
2022-10-28T14:32:35.209Z,17.50
2022-10-28T14:35:42.995Z,18.42
2022-10-28T14:38:52.537Z,16.20
2022-10-28T14:42:15.719Z,15.17
2022-10-28T14:45:39.829Z,19.87
2022-10-28T14:48:53.839Z,23.15
2022-10-28T14:51:58.247Z,30.67
2022-10-28T14:55:19.845Z,24.58
2022-10-28T14:58:24.682Z,26.30
2022-10-28T15:01:33.190Z,28.20
2022-10-28T15:04:35.944Z,26.95
2022-10-28T15:07:41.889Z,31.05
2022-10-28T15:10:49.476Z,26.62
2022-10-28T15:13:53.622Z,27.33
2022-10-28T15:16:57.035Z,18.63
2022-10-28T15:20:00.964Z,26.75
2022-10-28T15:23:22.028Z,27.10
2022-10-28T15:26:25.065Z,29.27
2022-10-28T15:29:27.880Z,31.30
2022-10-28T15:32:33.334Z,29.43
2022-10-28T15:35:39.719Z,29.30
2022-10-28T15:38:47.344Z,66.93
2022-10-28T15:41:52.628Z,57.62
2022-10-28T15:44:57.028Z,44.00
2022-10-28T15:48:10.224Z,49.10
2022-10-28T15:51:18.225Z,46.35
2022-10-28T15:54:20.885Z,39.13
2022-10-28T15:57:28.921Z,38.10
2022-10-28T16:00:33.676Z,37.23
2022-10-28T16:03:47.297Z,37.77
2022-10-28T16:06:54.634Z,33.83
2022-10-28T16:09:58.083Z,38.55
2022-10-28T16:13:01.915Z,29.73
2022-10-28T16:16:09.738Z,29.73
2022-10-28T16:19:28.198Z,27.70
2022-10-28T16:22:34.500Z,24.37
2022-10-28T16:25:37.213Z,40.95
2022-10-28T16:28:45.002Z,27.75
2022-10-28T16:31:52.723Z,31.80
2022-10-28T16:35:00.103Z,25.70
2022-10-28T16:38:12.240Z,36.47
2022-10-28T16:41:17.818Z,37.13
2022-10-28T16:44:20.775Z,29.23
2022-10-28T16:47:29.495Z,33.40
2022-10-28T16:50:32.045Z,44.30
2022-10-28T16:53:36.450Z,27.85
2022-10-28T16:56:40.297Z,23.45
2022-10-28T16:59:43.519Z,32.08
2022-10-28T17:02:50.845Z,27.17
2022-10-28T17:05:54.015Z,31.50
2022-10-28T17:09:02.998Z,28.27
2022-10-28T17:12:07.098Z,25.17
2022-10-28T17:15:10.961Z,27.98
2022-10-28T17:18:15.626Z,21.27
2022-10-28T17:21:19.125Z,18.97
2022-10-28T17:24:22.684Z,23.90
2022-10-28T17:27:26.588Z,26.12
2022-10-28T17:30:30.666Z,25.75
2022-10-28T17:33:33.624Z,24.90
2022-10-28T17:36:36.932Z,28.07
2022-10-28T17:39:39.559Z,26.17
2022-10-28T17:42:42.534Z,25.08
2022-10-28T17:45:45.226Z,27.05
2022-10-28T17:48:49.702Z,18.30
2022-10-28T17:51:52.795Z,25.10
2022-10-28T17:54:56.152Z,23.80
2022-10-28T17:57:59.160Z,27.52
2022-10-28T18:01:07.929Z,23.65
2022-10-28T18:04:12.273Z,26.00
2022-10-28T18:07:15.525Z,29.63
2022-10-28T18:10:19.160Z,27.52
2022-10-28T18:13:30.580Z,29.58
2022-10-28T18:16:35.976Z,25.75
2022-10-28T18:19:40.152Z,27.50
2022-10-28T18:22:43.435Z,28.67
2022-10-28T18:25:46.430Z,24.00
2022-10-28T18:28:50.243Z,25.20
2022-10-28T18:31:53.178Z,26.83
2022-10-28T18:34:56.165Z,27.63
2022-10-28T18:38:01.563Z,29.03
2022-10-28T18:41:14.318Z,35.53
2022-10-28T18:44:20.713Z,33.28
2022-10-28T18:47:25.136Z,26.20
2022-10-28T18:50:28.246Z,35.97
2022-10-28T18:53:31.656Z,25.57
2022-10-28T18:56:34.591Z,26.65
2022-10-28T18:59:52.389Z,27.52
2022-10-28T19:03:00.405Z,35.17
2022-10-28T19:06:09.091Z,36.80
2022-10-28T19:09:13.936Z,32.97
2022-10-28T19:12:16.840Z,28.08
2022-10-28T19:15:19.924Z,31.67
2022-10-28T19:18:23.244Z,32.38
2022-10-28T19:21:27.167Z,30.90
2022-10-28T19:24:30.669Z,34.20
2022-10-28T19:27:34.227Z,30.00
2022-10-28T19:30:37.857Z,33.22
2022-10-28T19:33:42.215Z,26.75
2022-10-28T19:36:45.205Z,32.03
2022-10-28T19:39:47.932Z,31.27
2022-10-28T19:46:13.541Z,32.40
2022-10-28T19:49:16.497Z,31.35
2022-10-28T19:52:19.431Z,30.80
2022-10-28T19:55:22.708Z,29.87
2022-10-28T19:58:26.169Z,31.50
2022-10-28T20:01:32.439Z,38.92
2022-10-28T20:04:36.058Z,36.58
2022-10-28T20:07:38.754Z,39.40
2022-10-28T20:10:41.615Z,43.10
2022-10-28T20:13:45.894Z,54.53
2022-10-28T20:16:49.463Z,44.55
2022-10-28T20:19:52.035Z,59.08
2022-10-28T20:22:58.713Z,49.13
2022-10-28T20:26:02.801Z,48.60
2022-10-28T20:29:10.192Z,39.58
2022-10-28T20:32:12.890Z,46.95
2022-10-28T20:35:19.207Z,34.20
2022-10-28T20:38:24.707Z,30.63
2022-10-28T20:41:31.578Z,33.77
2022-10-28T20:44:34.465Z,35.03
2022-10-28T20:47:37.525Z,39.13
2022-10-28T20:50:49.563Z,36.95
2022-10-28T20:53:52.783Z,36.10
2022-10-28T20:56:55.292Z,37.37
2022-10-28T20:59:59.427Z,38.67
2022-10-28T21:03:02.431Z,35.80
2022-10-28T21:06:06.939Z,38.40
2022-10-28T21:09:09.692Z,37.53
2022-10-28T21:12:12.524Z,33.53
2022-10-28T21:15:15.196Z,33.45
2022-10-28T21:18:18.095Z,35.22
2022-10-28T21:21:22.502Z,38.08
2022-10-28T21:24:25.416Z,39.40
2022-10-28T21:27:28.994Z,42.07
2022-10-28T21:30:33.045Z,39.30
2022-10-28T21:33:36.835Z,39.15
2022-10-28T21:36:39.795Z,38.65
2022-10-28T21:39:42.380Z,37.70
2022-10-28T21:42:49.111Z,35.20
2022-10-28T21:45:52.286Z,33.40
2022-10-28T21:48:55.364Z,36.13
2022-10-28T21:51:57.900Z,35.42
2022-10-28T21:55:09.682Z,32.30
2022-10-28T21:58:22.912Z,34.47
2022-10-28T22:01:28.340Z,32.50
2022-10-28T22:04:32.359Z,35.60
2022-10-28T22:07:34.974Z,34.17
2022-10-28T22:10:37.822Z,32.40
2022-10-28T22:13:40.406Z,36.40
2022-10-28T22:16:43.417Z,40.55
2022-10-28T22:19:46.033Z,35.60
2022-10-28T22:22:48.935Z,35.65
2022-10-28T22:25:52.827Z,38.53
2022-10-28T22:28:56.582Z,33.90
2022-10-28T22:31:59.101Z,34.28
2022-10-28T22:35:02.127Z,34.22
2022-10-28T22:38:04.741Z,34.70
2022-10-28T22:41:16.234Z,36.30
2022-10-28T22:44:18.843Z,31.13
2022-10-28T22:47:21.745Z,32.70
2022-10-28T22:50:24.301Z,37.00
2022-10-28T22:53:27.484Z,34.92
2022-10-28T22:56:30.324Z,34.73
2022-10-28T22:59:33.161Z,32.83
2022-10-28T23:02:35.942Z,34.55
2022-10-28T23:05:39.994Z,33.28
2022-10-28T23:08:44.967Z,32.95
2022-10-28T23:11:47.799Z,37.97
2022-10-28T23:14:50.395Z,36.50
2022-10-28T23:17:56.227Z,34.78
2022-10-28T23:21:20.837Z,35.70
2022-10-28T23:24:25.669Z,34.58
2022-10-28T23:27:28.247Z,37.30
2022-10-28T23:30:31.180Z,35.93
2022-10-28T23:33:35.086Z,33.50
2022-10-28T23:36:37.968Z,34.33
2022-10-28T23:39:40.569Z,37.55
2022-10-28T23:42:43.797Z,42.43
2022-10-28T23:45:46.417Z,34.43
2022-10-28T23:48:49.264Z,36.72
2022-10-28T23:51:51.841Z,39.78
2022-10-28T23:54:55.275Z,39.47
2022-10-28T23:57:58.264Z,34.97
